Flight Track Log - Related Links

Times and Time Zones

All times are in EDT time to prevent confusion due to time zone crossing. See the N55VF flight status page for this flight to view local times or setup timezone preferences in your user account.

Time Position Orientation Groundspeed Altitude Reporting Facility
EDT Latitude Longitude Course Direction KTS MPH feet Rate Location/Type
Fri 11:04:49 AM 41.8800 -89.7470 118° Southeast 161 185 5,300  Level FlightAware ADS-B
Fri 11:05:00 AM 42.0237 -89.7170 118° Southeast  Level Estimated
Fri 11:05:16 AM 41.8680 -89.7270 129° Southeast 157 181 5,600  Level FlightAware ADS-B
Fri 11:05:33 AM 41.8610 -89.7150 128° Southeast 157 181 5,700 545 Climbing FlightAware ADS-B
Fri 11:06:00 AM 41.8480 -89.6920 127° Southeast 160 184 6,000 632 Climbing FlightAware ADS-B
Fri 11:06:30 AM 41.8340 -89.6680 128° Southeast 158 182 6,300 545 Climbing FlightAware ADS-B
Fri 11:06:44 AM 41.8280 -89.6570 126° Southeast 159 183 6,400 522 Climbing FlightAware ADS-B
Fri 11:07:16 AM 41.8130 -89.6320 129° Southeast 159 183 6,700 536 Climbing FlightAware ADS-B
Fri 11:07:40 AM 41.8030 -89.6130 125° Southeast 159 183 6,900 226 Climbing FlightAware ADS-B
Fri 11:08:09 AM 41.7890 -89.5900 129° Southeast 171 197 6,900 120 Level FlightAware ADS-B
Fri 11:08:30 AM 41.7790 -89.5720 127° Southeast 173 199 7,000  Climbing FlightAware ADS-B
Fri 11:08:56 AM 41.7660 -89.5510 130° Southeast 184 212 6,900  Descending FlightAware ADS-B
Fri 11:09:22 AM 41.7520 -89.5260 127° Southeast 189 217 7,000  Climbing FlightAware ADS-B
Fri 11:09:55 AM 41.7330 -89.4940 129° Southeast 194 223 6,900  Descending FlightAware ADS-B
Fri 11:10:08 AM 41.7280 -89.4840 124° Southeast 195 224 7,000  Climbing FlightAware ADS-B
Fri 11:10:28 AM 41.7160 -89.4640 129° Southeast 198 228 6,900 -125 Descending FlightAware ADS-B
Fri 11:10:56 AM 41.6990 -89.4360 129° Southeast 198 228 6,900  Level FlightAware ADS-B
Fri 11:11:28 AM 41.6810 -89.4040 127° Southeast 201 231 6,900 98 Level FlightAware ADS-B
Fri 11:11:57 AM 41.6650 -89.3760 127° Southeast 200 230 7,000  Climbing FlightAware ADS-B
Fri 11:12:17 AM 41.6530 -89.3560 129° Southeast 202 232 6,900 -115 Descending FlightAware ADS-B
Fri 11:12:49 AM 41.6350 -89.3250 128° Southeast 201 231 6,900  Level FlightAware ADS-B
Fri 11:13:15 AM 41.6210 -89.3010 128° Southeast 201 231 6,900  Level FlightAware ADS-B
Fri 11:13:45 AM 41.6030 -89.2710 129° Southeast 202 232 6,900  Level FlightAware ADS-B
Fri 11:14:13 AM 41.5870 -89.2430 127° Southeast 200 230 6,900  Level FlightAware ADS-B
Fri 11:14:43 AM 41.5710 -89.2160 128° Southeast 201 231 6,900  Level FlightAware ADS-B
Fri 11:15:07 AM 41.5550 -89.1900 129° Southeast 202 232 6,900  Level FlightAware ADS-B
Fri 11:15:19 AM 41.5480 -89.1780 128° Southeast 201 231 6,900  Level FlightAware ADS-B
Fri 11:15:45 AM 41.5340 -89.1530 127° Southeast 199 229 6,900  Level FlightAware ADS-B
Fri 11:16:13 AM 41.5190 -89.1280 129° Southeast 196 226 6,900  Level FlightAware ADS-B
Fri 11:16:42 AM 41.5030 -89.1000 127° Southeast 193 222 6,900  Level FlightAware ADS-B
Fri 11:17:09 AM 41.4870 -89.0740 129° Southeast 190 219 6,900  Level FlightAware ADS-B
Fri 11:17:37 AM 41.4730 -89.0490 127° Southeast 189 217 6,900  Level FlightAware ADS-B
Fri 11:18:06 AM 41.4570 -89.0220 128° Southeast 188 216 6,900  Level FlightAware ADS-B
Fri 11:18:34 AM 41.4420 -88.9970 129° Southeast 187 215 6,900  Level FlightAware ADS-B
Fri 11:18:44 AM 41.4370 -88.9850 119° Southeast 192 221 6,900  Level FlightAware ADS-B
Fri 11:19:02 AM 41.4330 -88.9630 104° East 198 228 6,900 133 Level FlightAware ADS-B
Fri 11:19:29 AM 41.4300 -88.9320 97° East 195 224 7,000  Climbing FlightAware ADS-B
Fri 11:19:57 AM 41.4270 -88.9010 97° East 196 226 6,900 -150 Descending FlightAware ADS-B
Fri 11:20:09 AM 41.4240 -88.8850 104° East 196 226 6,900  Level FlightAware ADS-B
Fri 11:20:37 AM 41.4190 -88.8510 101° East 197 227 6,900  Level FlightAware ADS-B
Fri 11:20:53 AM 41.4170 -88.8320 98° East 196 226 6,900  Level FlightAware ADS-B
Fri 11:21:22 AM 41.4120 -88.7960 100° East 196 226 6,900  Level FlightAware ADS-B
Fri 11:21:49 AM 41.4080 -88.7660 100° East 198 228 6,900  Level FlightAware ADS-B
Fri 11:22:17 AM 41.4030 -88.7320 101° East 198 228 6,900  Level FlightAware ADS-B
Fri 11:22:43 AM 41.3990 -88.7010 100° East 198 228 6,900  Level FlightAware ADS-B
Fri 11:22:59 AM 41.3960 -88.6810 101° East 198 228 6,900  Level FlightAware ADS-B
Fri 11:23:27 AM 41.3910 -88.6480 101° East 197 227 6,900  Level FlightAware ADS-B
Fri 11:23:53 AM 41.3870 -88.6170 100° East 197 227 6,900  Level FlightAware ADS-B
Fri 11:24:11 AM 41.3840 -88.5960 101° East 196 226 6,900  Level FlightAware ADS-B
Fri 11:24:31 AM 41.3810 -88.5720 99° East 194 223 6,900  Level FlightAware ADS-B
Fri 11:24:58 AM 41.3760 -88.5380 101° East 194 223 6,900  Level FlightAware ADS-B
Fri 11:25:28 AM 41.3710 -88.5030 101° East 192 221 6,900  Level FlightAware ADS-B
Fri 11:25:56 AM 41.3670 -88.4720 100° East 192 221 6,900  Level FlightAware ADS-B
Fri 11:26:19 AM 41.3630 -88.4460 102° East 190 219 6,900  Level FlightAware ADS-B
Fri 11:26:51 AM 41.3580 -88.4100 100° East 185 213 6,900  Level FlightAware ADS-B
Fri 11:27:21 AM 41.3530 -88.3750 101° East 189 217 6,900  Level FlightAware ADS-B
Fri 11:27:46 AM 41.3490 -88.3460 100° East 190 219 6,900  Level FlightAware ADS-B
Fri 11:28:15 AM 41.3450 -88.3140 99° East 190 219 6,900  Level FlightAware ADS-B
Fri 11:28:44 AM 41.3400 -88.2790 101° East 191 220 6,900  Level FlightAware ADS-B
Fri 11:29:09 AM 41.3360 -88.2520 101° East 191 220 6,900  Level FlightAware ADS-B
Fri 11:29:31 AM 41.3320 -88.2270 102° East 190 219 6,900  Level FlightAware ADS-B
Fri 11:29:47 AM 41.3300 -88.2080 98° East 189 217 6,900  Level FlightAware ADS-B
Fri 11:30:15 AM 41.3250 -88.1760 102° East 188 216 6,900  Level FlightAware ADS-B
Fri 11:30:39 AM 41.3210 -88.1490 101° East 188 216 6,900  Level FlightAware ADS-B
Fri 11:31:09 AM 41.3170 -88.1150 99° East 187 215 6,900  Level FlightAware ADS-B
Fri 11:31:29 AM 41.3130 -88.0930 104° East 186 214 6,900  Level FlightAware ADS-B
Fri 11:31:57 AM 41.3090 -88.0610 99° East 186 214 6,900  Level FlightAware ADS-B
Fri 11:32:17 AM 41.3060 -88.0390 100° East 185 213 6,900  Level FlightAware ADS-B
Fri 11:32:46 AM 41.3010 -88.0070 102° East 186 214 6,900  Level FlightAware ADS-B
Fri 11:33:02 AM 41.2980 -87.9880 102° East 186 214 6,900  Level FlightAware ADS-B
Fri 11:33:31 AM 41.2940 -87.9560 99° East 188 216 6,900  Level FlightAware ADS-B
Fri 11:33:58 AM 41.2890 -87.9230 101° East 186 214 6,900  Level FlightAware ADS-B
Fri 11:34:27 AM 41.2840 -87.8920 102° East 187 215 6,900  Level FlightAware ADS-B
Fri 11:34:51 AM 41.2800 -87.8650 101° East 187 215 6,900  Level FlightAware ADS-B
Fri 11:35:19 AM 41.2760 -87.8330 99° East 187 215 6,900  Level FlightAware ADS-B
Fri 11:35:35 AM 41.2730 -87.8160 103° East 186 214 6,900  Level FlightAware ADS-B
Fri 11:36:01 AM 41.2690 -87.7860 100° East 185 213 6,900  Level FlightAware ADS-B
Fri 11:36:33 AM 41.2700 -87.7480 88° East 187 215 6,900  Level FlightAware ADS-B
Fri 11:36:57 AM 41.2710 -87.7200 87° East 189 217 6,900  Level FlightAware ADS-B
Fri 11:37:29 AM 41.2720 -87.6840 88° East 188 216 6,900  Level FlightAware ADS-B
Fri 11:37:53 AM 41.2720 -87.6560 90° East 187 215 6,900  Level FlightAware ADS-B
Fri 11:38:17 AM 41.2720 -87.6270 90° East 188 216 6,900  Level FlightAware ADS-B
Fri 11:38:43 AM 41.2730 -87.5990 87° East 187 215 6,900  Level FlightAware ADS-B
Fri 11:38:57 AM 41.2730 -87.5820 90° East 189 217 6,900  Level FlightAware ADS-B
Fri 11:39:23 AM 41.2740 -87.5510 88° East 190 219 6,900  Level FlightAware ADS-B
Fri 11:39:41 AM 41.2740 -87.5310 90° East 191 220 6,900  Level FlightAware ADS-B
Fri 11:40:06 AM 41.2750 -87.5050 87° East 192 221 6,900  Level FlightAware ADS-B
Fri 11:40:21 AM 41.2750 -87.4840 90° East 190 219 6,900  Level FlightAware ADS-B
Fri 11:40:45 AM 41.2760 -87.4550 87° East 192 221 6,900  Level FlightAware ADS-B
Fri 11:40:57 AM 41.2760 -87.4420 90° East 191 220 6,900  Level FlightAware ADS-B
Fri 11:41:23 AM 41.2760 -87.4110 90° East 189 217 6,900  Level FlightAware ADS-B
Fri 11:41:47 AM 41.2770 -87.3840 87° East 188 216 6,900  Level FlightAware ADS-B
Fri 11:42:07 AM 41.2770 -87.3620 90° East 187 215 6,900  Level FlightAware ADS-B
Fri 11:42:34 AM 41.2780 -87.3300 88° East 186 214 6,900  Level FlightAware ADS-B
Fri 11:43:03 AM 41.2780 -87.2960 90° East 187 215 6,900  Level FlightAware ADS-B
Fri 11:43:31 AM 41.2780 -87.2640 90° East 187 215 6,900  Level FlightAware ADS-B
Fri 11:44:00 AM 41.2790 -87.2320 88° East 188 216 6,900  Level FlightAware ADS-B
Fri 11:44:23 AM 41.2790 -87.2040 90° East 186 214 6,900  Level FlightAware ADS-B
Fri 11:44:58 AM 41.2800 -87.1660 88° East 185 213 6,900  Level FlightAware ADS-B
Fri 11:45:21 AM 41.2800 -87.1390 90° East 185 213 6,900  Level FlightAware ADS-B
Fri 11:45:45 AM 41.2810 -87.1120 87° East 185 213 6,900  Level FlightAware ADS-B
Fri 11:46:15 AM 41.2810 -87.0770 90° East 187 215 6,900  Level FlightAware ADS-B
Fri 11:46:41 AM 41.2810 -87.0470 90° East 186 214 6,900  Level FlightAware ADS-B
Fri 11:47:07 AM 41.2820 -87.0190 87° East 185 213 6,900  Level FlightAware ADS-B
Fri 11:47:32 AM 41.2820 -86.9890 90° East 185 213 6,900  Level FlightAware ADS-B
Fri 11:47:59 AM 41.2830 -86.9590 87° East 184 212 6,900  Level FlightAware ADS-B
Fri 11:48:25 AM 41.2830 -86.9290 90° East 184 212 6,900  Level FlightAware ADS-B
Fri 11:48:51 AM 41.2830 -86.9000 90° East 183 211 6,900  Level FlightAware ADS-B
Fri 11:49:05 AM 41.2830 -86.8840 90° East 184 212 6,900  Level FlightAware ADS-B
Fri 11:49:35 AM 41.2840 -86.8500 88° East 183 211 6,900  Level FlightAware ADS-B
Fri 11:50:05 AM 41.2840 -86.8170 90° East 184 212 6,900  Level FlightAware ADS-B
Fri 11:50:31 AM 41.2840 -86.7870 90° East 184 212 6,900  Level FlightAware ADS-B
Fri 11:50:59 AM 41.2850 -86.7570 87° East 184 212 6,900  Level FlightAware ADS-B
Fri 11:51:11 AM 41.2850 -86.7430 90° East 183 211 6,900  Level FlightAware ADS-B
Fri 11:51:43 AM 41.2850 -86.7060 90° East 184 212 6,900  Level FlightAware ADS-B
Fri 11:52:11 AM 41.2860 -86.6740 88° East 183 211 6,900  Level FlightAware ADS-B
Fri 11:52:31 AM 41.2860 -86.6530 90° East 183 211 6,900  Level FlightAware ADS-B
Fri 11:53:02 AM 41.2860 -86.6170 90° East 181 208 6,900  Level FlightAware ADS-B
Fri 11:53:30 AM 41.2860 -86.5870 90° East 181 208 6,900  Level FlightAware ADS-B
Fri 11:54:02 AM 41.2870 -86.5510 88° East 182 209 6,900  Level FlightAware ADS-B
Fri 11:54:26 AM 41.2870 -86.5230 90° East 184 212 6,900  Level FlightAware ADS-B
Fri 11:54:56 AM 41.2870 -86.4910 90° East 183 211 6,900  Level FlightAware ADS-B
Fri 11:55:23 AM 41.2870 -86.4610 90° East 183 211 6,900  Level FlightAware ADS-B
Fri 11:55:55 AM 41.2880 -86.4230 88° East 182 209 6,900  Level FlightAware ADS-B
Fri 11:56:19 AM 41.2880 -86.3970 90° East 179 206 6,900  Level FlightAware ADS-B
Fri 11:56:45 AM 41.2880 -86.3700 90° East 179 206 6,900  Level FlightAware ADS-B
Fri 11:57:02 AM 41.2880 -86.3500 90° East 181 208 6,900  Level FlightAware ADS-B
Fri 11:57:29 AM 41.2890 -86.3210 87° East 178 205 6,900  Level FlightAware ADS-B
Fri 11:57:56 AM 41.2890 -86.2910 90° East 179 206 6,900  Level FlightAware ADS-B
Fri 11:58:24 AM 41.2890 -86.2600 90° East 179 206 6,900  Level FlightAware ADS-B
Fri 11:58:50 AM 41.2890 -86.2310 90° East 180 207 6,900  Level FlightAware ADS-B
Fri 11:59:32 AM 41.2890 -86.1860 90° East 177 204 6,900  Level FlightAware ADS-B
Fri 12:00:07 PM 41.2890 -86.1470 90° East 178 205 6,900 83 Level FlightAware ADS-B
Fri 12:00:44 PM 41.2892 -86.1103 90° East 178 205 7,000 61 Climbing Chicago Center
Fri 12:01:46 PM 41.2897 -86.0444 89° East 179 206 7,000  Level Chicago Center
Fri 12:02:48 PM 41.2894 -85.9783 90° East 179 206 7,000  Level Chicago Center
Fri 12:03:50 PM 41.2897 -85.9114 90° East 182 209 7,000  Level Chicago Center
Fri 12:04:53 PM 41.2894 -85.8444 90° East 182 209 7,000  Level Chicago Center
Fri 12:05:55 PM 41.2900 -85.7767 89° East 184 212 7,000  Level Chicago Center
Fri 12:06:57 PM 41.2900 -85.6958 90° East 184 212 7,000 48 Level Chicago Center
Fri 12:07:59 PM 41.2906 -85.6275 89° East 185 213 7,100 -14 Climbing Chicago Center
Fri 12:14:12 PM 41.2900 -85.2030 89° East 181 208 6,900 -31 Descending FlightAware ADS-B
Fri 12:14:21 PM 41.2900 -85.1920 90° East 181 208 6,900  Level FlightAware ADS-B
Fri 12:15:03 PM 41.2900 -85.1490 90° East 181 208 6,900  Level FlightAware ADS-B
Fri 12:15:46 PM 41.2900 -85.1750 270° West 182 209 6,900  Level FlightAware ADS-B
Fri 12:16:12 PM 41.2900 -85.0730 90° East 184 212 6,900 132 Level FlightAware ADS-B
Fri 12:17:17 PM 41.2900 -84.9953 90° East 183 211 7,100 94 Climbing Chicago Center
Fri 12:18:20 PM 41.2897 -84.9261 90° East 184 212 7,100  Level Chicago Center
Fri 12:19:22 PM 41.2892 -84.8572 91° East 186 214 7,100  Level Chicago Center
Fri 12:20:24 PM 41.2892 -84.7900 90° East 185 213 7,100  Level Chicago Center
Fri 12:21:26 PM 41.2883 -84.7208 91° East 186 214 7,100  Level Chicago Center
Fri 12:22:28 PM 41.2883 -84.6525 90° East 186 214 7,100  Level Chicago Center
Fri 12:23:30 PM 41.2878 -84.5714 90° East 185 213 7,100  Level Chicago Center
Fri 12:24:32 PM 41.2875 -84.5028 90° East 186 214 7,100 -32 Level Chicago Center
Fri 12:29:43 PM 41.2820 -84.1410 90° East 186 214 6,900 -37 Descending FlightAware ADS-B
Fri 12:29:57 PM 41.2820 -84.1240 90° East 187 215 6,900  Level FlightAware ADS-B
Fri 12:30:24 PM 41.2820 -84.0930 90° East 187 215 6,900  Level FlightAware ADS-B
Fri 12:30:52 PM 41.2810 -84.0610 92° East 188 216 6,900  Level FlightAware ADS-B
Fri 12:31:08 PM 41.2810 -84.0440 90° East 188 216 6,900  Level FlightAware ADS-B
Fri 12:31:36 PM 41.2800 -84.0110 92° East 188 216 6,900  Level FlightAware ADS-B
Fri 12:31:48 PM 41.2800 -83.9960 90° East 188 216 6,900  Level FlightAware ADS-B
Fri 12:32:20 PM 41.2800 -83.9590 90° East 189 217 6,900  Level FlightAware ADS-B
Fri 12:32:59 PM 41.2790 -83.9200 92° East 190 219 6,900  Level FlightAware ADS-B
Fri 12:35:12 PM 41.2770 -83.7650 91° East 189 217 6,900 68 Level FlightAware ADS-B
Fri 12:35:55 PM 41.2783 -83.7164 91° East 188 216 7,100 -117 Climbing Chicago Center
Fri 12:38:00 PM 41.2733 -83.5758 93° East  Level FlightAware Approximate
Fri 12:45:00 PM 41.2550 -83.1035 93° East  Level FlightAware Approximate
Fri 12:46:00 PM 41.2522 -83.0360 93° East  Level FlightAware Approximate
Fri 12:47:00 PM 41.2500 -82.9685 90° East  Level FlightAware Approximate
Fri 12:48:00 PM 41.2501 -82.9009 90° East  Level FlightAware Approximate
Fri 12:49:00 PM 41.2502 -82.8334 90° East  Level FlightAware Approximate
Fri 12:50:00 PM 41.2503 -82.7658 90° East  Level FlightAware Approximate
Fri 12:51:00 PM 41.2502 -82.6983 90° East  Level FlightAware Approximate
Fri 12:52:00 PM 41.2502 -82.6307 90° East  Level FlightAware Approximate
Fri 12:53:00 PM 41.2501 -82.5632 90° East  Level FlightAware Approximate
Fri 12:53:09 PM 41.2500 -82.4880 90° East 183 211 4,800  Level FlightAware ADS-B
Fri 12:53:40 PM 41.2490 -82.4480 92° East 183 211 4,800 -214 Level FlightAware ADS-B
Fri 12:54:05 PM 41.2480 -82.4240 93° East 189 217 4,600 -857 Descending FlightAware ADS-B
Fri 12:54:29 PM 41.2470 -82.3900 92° East 204 235 4,100 -889 Descending FlightAware ADS-B
Fri 12:54:59 PM 41.2460 -82.3400 92° East 193 222 3,800 -295 Descending FlightAware ADS-B
Fri 12:55:30 PM 41.2450 -82.3030 92° East 185 213 3,800  Level FlightAware ADS-B
Fri 12:55:58 PM 41.2440 -82.2720 92° East 179 206 3,800  Level FlightAware ADS-B
Fri 12:56:26 PM 41.2420 -82.2420 95° East 177 204 3,800  Level FlightAware ADS-B
Fri 12:57:20 PM 41.2270 -82.2030 117° Southeast 175 201 3,800 83 Level FlightAware ADS-B
Fri 12:57:38 PM 41.2190 -82.1820 117° Southeast 173 199 3,900  Climbing FlightAware ADS-B
Fri 12:57:54 PM 41.2120 -82.1640 117° Southeast 175 201 3,800 -95 Descending FlightAware ADS-B
Fri 12:58:41 PM 41.1950 -82.1210 118° Southeast 175 201 3,800  Level FlightAware ADS-B
Fri 12:58:53 PM 41.1910 -82.1100 116° Southeast 174 200 3,800  Level FlightAware ADS-B
Fri 12:59:15 PM 41.1830 -82.0880 116° Southeast 176 203 3,800  Level FlightAware ADS-B
Fri 12:59:45 PM 41.1730 -82.0610 116° Southeast 176 203 3,800  Level FlightAware ADS-B
Fri 01:00:07 PM 41.1650 -82.0420 119° Southeast 175 201 3,800  Level FlightAware ADS-B
Fri 01:00:36 PM 41.1540 -82.0140 118° Southeast 175 201 3,800  Level FlightAware ADS-B
Fri 01:01:05 PM 41.1390 -81.9750 117° Southeast 175 201 3,800  Level FlightAware ADS-B
Fri 01:01:22 PM 41.1330 -81.9580 115° Southeast 178 205 3,800 133 Level FlightAware ADS-B
Fri 01:01:50 PM 41.1220 -81.9300 118° Southeast 176 203 3,900  Climbing FlightAware ADS-B
Fri 01:02:12 PM 41.1140 -81.9090 117° Southeast 176 203 3,800 -154 Descending FlightAware ADS-B
Fri 01:02:29 PM 41.1080 -81.8930 116° Southeast 173 199 3,800 97 Level FlightAware ADS-B
Fri 01:03:14 PM 41.0960 -81.8620 117° Southeast 176 203 3,900 82 Climbing FlightAware ADS-B
Fri 01:03:42 PM 41.0900 -81.8190 100° East 179 206 3,900 -150 Level FlightAware ADS-B
Fri 01:03:54 PM 41.0930 -81.8070 72° East 185 213 3,800 -167 Descending FlightAware ADS-B
Fri 01:04:18 PM 41.0990 -81.7810 73° East 177 204 3,800  Level FlightAware ADS-B
Fri 01:04:46 PM 41.1050 -81.7510 75° East 183 211 3,800  Level FlightAware ADS-B
Fri 01:05:11 PM 41.1100 -81.7240 76° East 179 206 3,800  Level FlightAware ADS-B
Fri 01:05:40 PM 41.1170 -81.6940 73° East 176 203 3,800  Level FlightAware ADS-B
Fri 01:06:09 PM 41.1230 -81.6640 75° East 177 204 3,800 125 Level FlightAware ADS-B
Fri 01:06:28 PM 41.1280 -81.6440 72° East 175 201 3,900  Climbing FlightAware ADS-B
Fri 01:06:56 PM 41.1340 -81.6140 75° East 177 204 3,800 -107 Descending FlightAware ADS-B
Fri 01:07:24 PM 41.1400 -81.5840 75° East 185 213 3,800  Level FlightAware ADS-B
Fri 01:07:54 PM 41.1470 -81.5530 73° East 176 203 3,800 -214 Level FlightAware ADS-B
Fri 01:08:20 PM 41.1530 -81.5240 75° East 191 220 3,600 -600 Descending FlightAware ADS-B
Fri 01:08:44 PM 41.1590 -81.4960 74° East 198 228 3,300 -346 Descending FlightAware ADS-B
Fri 01:09:12 PM 41.1650 -81.4650 76° East 182 209 3,300  Level FlightAware ADS-B
Fri 01:09:40 PM 41.1710 -81.4360 75° East 166 191 3,300  Level FlightAware ADS-B
Fri 01:10:09 PM 41.1770 -81.4100 73° East 164 189 3,300  Level FlightAware ADS-B
Fri 01:10:32 PM 41.1820 -81.3860 75° East 156 180 3,300 -91 Level FlightAware ADS-B
Fri 01:11:15 PM 41.1880 -81.3560 75° East 146 168 3,200 -423 Descending FlightAware ADS-B
Fri 01:11:43 PM 41.1890 -81.3350 86° East 145 167 2,800 -649 Descending FlightAware ADS-B
Fri 01:11:52 PM 41.1890 -81.3330 90° East 145 167 2,800  Level FlightAware ADS-B
Fri 01:14:00 PM 41.2000 -81.2500 90° East  Level FlightAware Approximate
Fri 01:15:00 PM 41.2102 -81.2516 90° East  Level Estimated
Fri 01:16:00 PM 41.2102 -81.2516 90° East  Level Estimated
Fri 01:17:00 PM 41.2102 -81.2516 90° East  Level Estimated
Fri 01:18:00 PM 41.2102 -81.2516 90° East  Level Estimated
Fri 01:19:00 PM 41.2102 -81.2516 90° East  Level Estimated
Fri 01:20:00 PM 41.2102 -81.2516 90° East  Level Estimated
Fri 01:21:00 PM 41.2102 -81.2516 90° East  Level Estimated
Fri 01:22:00 PM 41.2102 -81.2516 90° East  Level Estimated
Fri 01:23:00 PM 41.2102 -81.2516 90° East  Level Estimated
Fri 01:24:00 PM 41.2102 -81.2516 90° East  Level Estimated
Fri 01:25:00 PM 41.2102 -81.2516 90° East  Level Estimated

Login

Don't have an account? Register now (free) for customized features, flight alerts, and more!